Carrying Place Town Township, Maine
Current Conditions -  °F | °C
As of 11:55 AM on Saturday 25 Oct 2014 (Local Time) from KWVL Reporting Station
Clear Clear  
Wind Chill: 59°   Ceiling: Unl
Heat Index: 59°   Visibility: 10mi
Dew Point: 34°   Wind: 6mph
Humidity: 39%   Direction: 330°NNW
Pressure: 29.6"   Gusts: NA
Location:  45.0341°N, 70.0886°W
Report Text: KWVL 251555Z 33005KT 10SM CLR 15/01 A2960 RMK AO1
Loading
Personal Weather Stations






























Interactive Weather Map
Tropical Storm Tracking
New forecast layout! Learn more

10-Day Weather Forecast

Advertisements
Track Severe Weather on mobile